Time;durP1;ratioP1;P1;durP2;ratioP2;P2;SDS_P1;SDS_P2;PMS_P1;PMS_P2;Temp;Humidity;BMP_temperature;BMP_pressure;BME280_temperature;BME280_humidity;BME280_pressure;Samples;Min_cycle;Max_cycle;Signal;HPM_P1;HPM_P2
2022/03/28 00:00:19;;;;;;;11.32;6.03;;;;;;;;;;5089501;28;20090;-70
2022/03/28 00:02:45;;;;;;;10.38;6.43;;;;;;;;;;5087292;28;20047;-70
2022/03/28 00:05:14;;;;;;;13.23;6.30;;;;;;;;;;5088849;28;20427;-70
2022/03/28 00:07:41;;;;;;;11.75;6.60;;;;;;;;;;5089939;28;20035;-71
2022/03/28 00:10:08;;;;;;;9.93;6.22;;;;;;;;;;5089356;28;20048;-70
2022/03/28 00:12:34;;;;;;;11.32;6.03;;;;;;;;;;5076047;28;20036;-70
2022/03/28 00:15:00;;;;;;;11.50;6.07;;;;;;;;;;5079114;28;20097;-70
2022/03/28 00:17:26;;;;;;;10.35;6.35;;;;;;;;;;5081250;28;20429;-70
2022/03/28 00:19:52;;;;;;;10.88;6.28;;;;;;;;;;5084489;28;20028;-69
2022/03/28 00:22:21;;;;;;;9.70;6.10;;;;;;;;;;5082242;28;20398;-70
2022/03/28 00:24:47;;;;;;;9.70;5.82;;;;;;;;;;5088085;28;20044;-70
2022/03/28 00:27:13;;;;;;;10.45;6.28;;;;;;;;;;5081576;28;20032;-71
2022/03/28 00:29:39;;;;;;;17.02;6.88;;;;;;;;;;5082845;28;20510;-70
2022/03/28 00:32:05;;;;;;;11.57;6.55;;;;;;;;;;5086112;28;20044;-70
2022/03/28 00:34:31;;;;;;;12.77;6.00;;;;;;;;;;5076120;28;20032;-70
2022/03/28 00:36:57;;;;;;;14.45;6.68;;;;;;;;;;5075726;28;20039;-70
2022/03/28 00:39:22;;;;;;;11.20;6.13;;;;;;;;;;5076937;28;20471;-70
2022/03/28 00:41:49;;;;;;;11.60;6.57;;;;;;;;;;5078167;28;20024;-70
2022/03/28 00:44:15;;;;;;;11.25;6.43;;;;;;;;;;5081233;28;20161;-70
2022/03/28 00:46:41;;;;;;;12.85;6.28;;;;;;;;;;5082185;28;20112;-70
2022/03/28 00:49:07;;;;;;;11.93;6.82;;;;;;;;;;5075849;28;20039;-69
2022/03/28 00:51:34;;;;;;;11.63;7.28;;;;;;;;;;5081541;28;20020;-70
2022/03/28 00:54:00;;;;;;;9.50;6.30;;;;;;;;;;5085120;28;20499;-70
2022/03/28 00:56:26;;;;;;;18.27;6.68;;;;;;;;;;5083763;28;20115;-69
2022/03/28 00:58:52;;;;;;;9.55;5.90;;;;;;;;;;5083611;28;20423;-70
2022/03/28 01:01:18;;;;;;;10.48;6.35;;;;;;;;;;5088783;28;20039;-69
2022/03/28 01:03:43;;;;;;;9.93;6.40;;;;;;;;;;5084215;28;20032;-70
2022/03/28 01:06:09;;;;;;;12.48;7.00;;;;;;;;;;5083874;28;20024;-69
2022/03/28 01:08:36;;;;;;;14.02;6.57;;;;;;;;;;5079106;28;20033;-70
2022/03/28 01:11:04;;;;;;;12.43;6.35;;;;;;;;;;5089222;28;20728;-70
2022/03/28 01:13:30;;;;;;;11.93;6.32;;;;;;;;;;5089819;28;20161;-70
2022/03/28 01:15:56;;;;;;;12.82;6.20;;;;;;;;;;5081033;28;20039;-69
2022/03/28 01:18:22;;;;;;;13.18;6.38;;;;;;;;;;5080009;28;20016;-69
2022/03/28 01:20:48;;;;;;;11.20;6.35;;;;;;;;;;5073888;28;20016;-70
2022/03/28 01:23:14;;;;;;;9.95;6.18;;;;;;;;;;5080888;28;20046;-70
2022/03/28 01:25:40;;;;;;;10.00;6.38;;;;;;;;;;5076149;28;20028;-70
2022/03/28 01:28:06;;;;;;;13.68;6.68;;;;;;;;;;5078966;28;20111;-69
2022/03/28 01:30:32;;;;;;;12.57;7.00;;;;;;;;;;5083528;28;20126;-69
2022/03/28 01:32:59;;;;;;;17.23;7.15;;;;;;;;;;5078304;28;20103;-70
2022/03/28 01:35:29;;;;;;;11.75;6.03;;;;;;;;;;5077911;28;20050;-69
2022/03/28 01:37:55;;;;;;;13.50;6.53;;;;;;;;;;5081277;28;20024;-70
2022/03/28 01:40:21;;;;;;;14.25;7.30;;;;;;;;;;5084495;28;20028;-69
2022/03/28 01:42:49;;;;;;;14.32;7.60;;;;;;;;;;5078565;28;20467;-69
2022/03/28 01:45:15;;;;;;;10.63;6.57;;;;;;;;;;5086592;28;20032;-69
2022/03/28 01:47:41;;;;;;;16.45;7.55;;;;;;;;;;5077943;28;20158;-70
2022/03/28 01:50:07;;;;;;;15.15;7.60;;;;;;;;;;5078040;28;20028;-69
2022/03/28 01:52:33;;;;;;;13.20;7.38;;;;;;;;;;5076279;28;20028;-70
2022/03/28 01:54:59;;;;;;;14.27;7.35;;;;;;;;;;5077060;28;20032;-70
2022/03/28 01:57:25;;;;;;;14.40;7.15;;;;;;;;;;5085735;28;20228;-70
2022/03/28 01:59:51;;;;;;;15.57;7.30;;;;;;;;;;5082593;28;20030;-70
2022/03/28 02:02:17;;;;;;;14.18;7.68;;;;;;;;;;5083490;28;20028;-69
2022/03/28 02:04:42;;;;;;;15.38;6.97;;;;;;;;;;5074141;28;20024;-70
2022/03/28 02:07:08;;;;;;;12.85;8.00;;;;;;;;;;5073826;28;20107;-70
2022/03/28 02:09:34;;;;;;;17.67;7.90;;;;;;;;;;5080597;28;20051;-70
2022/03/28 02:12:00;;;;;;;16.98;7.50;;;;;;;;;;5081287;28;20028;-70
2022/03/28 02:14:26;;;;;;;14.23;7.00;;;;;;;;;;5082437;28;20486;-70
2022/03/28 02:16:52;;;;;;;13.85;6.65;;;;;;;;;;5080542;28;20090;-70
2022/03/28 02:19:19;;;;;;;20.98;7.78;;;;;;;;;;5076299;28;20123;-70
2022/03/28 02:21:45;;;;;;;13.88;7.35;;;;;;;;;;5076881;28;20021;-70
2022/03/28 02:24:14;;;;;;;11.90;7.07;;;;;;;;;;5082418;28;20650;-70
2022/03/28 02:26:40;;;;;;;13.43;6.93;;;;;;;;;;5080034;28;20025;-70
2022/03/28 02:29:06;;;;;;;15.43;6.95;;;;;;;;;;5083367;28;20387;-69
2022/03/28 02:31:32;;;;;;;12.00;6.70;;;;;;;;;;5075065;28;20021;-70
2022/03/28 02:33:58;;;;;;;12.48;6.75;;;;;;;;;;5080338;28;20024;-70
2022/03/28 02:36:24;;;;;;;11.68;6.78;;;;;;;;;;5089409;28;20055;-70
2022/03/28 02:38:50;;;;;;;11.75;6.93;;;;;;;;;;5075739;28;20036;-70
2022/03/28 02:41:16;;;;;;;16.48;7.88;;;;;;;;;;5079163;28;20024;-70
2022/03/28 02:43:42;;;;;;;17.98;7.45;;;;;;;;;;5079222;28;20036;-70
2022/03/28 02:46:08;;;;;;;12.48;7.03;;;;;;;;;;5079342;28;20029;-70
2022/03/28 02:48:34;;;;;;;14.10;6.93;;;;;;;;;;5085787;28;21274;-70
2022/03/28 02:51:00;;;;;;;13.15;7.40;;;;;;;;;;5076605;28;20029;-70
2022/03/28 02:53:26;;;;;;;13.63;6.68;;;;;;;;;;5080863;28;20378;-69
2022/03/28 02:55:52;;;;;;;15.35;7.00;;;;;;;;;;5087459;28;20028;-69
2022/03/28 02:58:18;;;;;;;15.27;6.72;;;;;;;;;;5081926;28;20046;-70
2022/03/28 03:00:43;;;;;;;17.27;7.40;;;;;;;;;;5081432;28;20038;-69
2022/03/28 03:03:09;;;;;;;14.82;6.72;;;;;;;;;;5084304;28;20053;-70
2022/03/28 03:05:35;;;;;;;15.95;7.05;;;;;;;;;;5091298;28;20078;-71
2022/03/28 03:08:01;;;;;;;17.88;7.22;;;;;;;;;;5078644;28;20039;-70
2022/03/28 03:10:27;;;;;;;16.08;6.47;;;;;;;;;;5078812;28;20081;-70
2022/03/28 03:12:53;;;;;;;10.85;6.38;;;;;;;;;;5085463;28;20526;-70
2022/03/28 03:15:19;;;;;;;16.10;6.78;;;;;;;;;;5090081;28;20035;-70
2022/03/28 03:17:45;;;;;;;13.68;6.10;;;;;;;;;;5090892;28;20085;-70
2022/03/28 03:20:14;;;;;;;14.77;6.75;;;;;;;;;;5088607;28;20040;-70
2022/03/28 03:22:42;;;;;;;10.77;6.25;;;;;;;;;;5073327;28;20020;-70
2022/03/28 03:25:08;;;;;;;16.30;6.55;;;;;;;;;;5075726;28;20024;-70
2022/03/28 03:27:35;;;;;;;16.50;6.50;;;;;;;;;;5085216;28;20352;-70
2022/03/28 03:30:01;;;;;;;14.55;6.40;;;;;;;;;;5087826;28;20025;-70
2022/03/28 03:32:27;;;;;;;17.60;6.30;;;;;;;;;;5087536;28;20054;-69
2022/03/28 03:34:55;;;;;;;17.98;6.22;;;;;;;;;;5084945;28;20051;-69
2022/03/28 03:37:20;;;;;;;15.57;6.63;;;;;;;;;;5076526;28;20035;-70
2022/03/28 03:39:46;;;;;;;16.08;6.88;;;;;;;;;;5083429;28;20025;-70
2022/03/28 03:42:13;;;;;;;15.00;6.63;;;;;;;;;;5075921;28;20516;-69
2022/03/28 03:44:39;;;;;;;13.18;7.13;;;;;;;;;;5078415;28;20055;-69
2022/03/28 03:47:05;;;;;;;16.33;6.75;;;;;;;;;;5076885;28;20439;-69
2022/03/28 03:49:31;;;;;;;17.85;6.65;;;;;;;;;;5083518;28;20059;-70
2022/03/28 03:51:57;;;;;;;19.08;7.00;;;;;;;;;;5081659;28;20048;-70
2022/03/28 03:54:22;;;;;;;20.80;7.13;;;;;;;;;;5084736;28;20471;-70
2022/03/28 03:56:48;;;;;;;24.23;7.43;;;;;;;;;;5090916;28;20020;-70
2022/03/28 03:59:14;;;;;;;14.48;7.20;;;;;;;;;;5081725;28;20494;-70
2022/03/28 04:01:40;;;;;;;20.88;7.53;;;;;;;;;;5083453;28;20081;-69
2022/03/28 04:04:06;;;;;;;17.75;7.15;;;;;;;;;;5077867;28;20451;-70
2022/03/28 04:06:32;;;;;;;17.00;6.88;;;;;;;;;;5077843;28;20023;-70
2022/03/28 04:08:58;;;;;;;17.65;7.50;;;;;;;;;;5081746;28;20036;-70
2022/03/28 04:11:25;;;;;;;12.43;7.07;;;;;;;;;;5084381;28;20028;-70
2022/03/28 04:13:51;;;;;;;18.50;7.10;;;;;;;;;;5090816;28;20028;-70
2022/03/28 04:16:16;;;;;;;19.42;7.00;;;;;;;;;;5082386;28;20028;-70
2022/03/28 04:18:42;;;;;;;17.92;7.30;;;;;;;;;;5080830;28;20409;-69
2022/03/28 04:21:08;;;;;;;18.73;7.43;;;;;;;;;;5085175;28;20046;-69
2022/03/28 04:23:34;;;;;;;19.30;6.85;;;;;;;;;;5091315;28;20390;-70
2022/03/28 04:26:00;;;;;;;17.27;7.03;;;;;;;;;;5079243;28;20012;-69
2022/03/28 04:28:26;;;;;;;15.60;6.88;;;;;;;;;;5075091;28;20047;-70
2022/03/28 04:30:52;;;;;;;15.35;7.03;;;;;;;;;;5087066;28;20524;-70
2022/03/28 04:33:19;;;;;;;27.38;7.70;;;;;;;;;;5079641;28;20086;-69
2022/03/28 04:35:45;;;;;;;18.08;7.45;;;;;;;;;;5081111;28;20024;-70
2022/03/28 04:38:10;;;;;;;13.43;6.90;;;;;;;;;;5083559;28;20468;-70
2022/03/28 04:40:37;;;;;;;15.55;7.45;;;;;;;;;;5077630;28;20038;-70
2022/03/28 04:43:03;;;;;;;18.10;6.95;;;;;;;;;;5081932;28;20074;-70
2022/03/28 04:45:30;;;;;;;18.73;6.95;;;;;;;;;;5090454;28;20024;-71
2022/03/28 04:47:56;;;;;;;20.00;7.97;;;;;;;;;;5079293;28;20469;-69
2022/03/28 04:50:22;;;;;;;19.50;7.50;;;;;;;;;;5081664;28;20024;-68
2022/03/28 04:52:48;;;;;;;25.25;7.72;;;;;;;;;;5087164;28;20028;-69
2022/03/28 04:55:14;;;;;;;23.88;7.80;;;;;;;;;;5080749;28;20032;-69
2022/03/28 04:57:40;;;;;;;17.13;7.70;;;;;;;;;;5079810;28;20509;-70
2022/03/28 05:00:12;;;;;;;21.98;7.63;;;;;;;;;;5075288;28;20395;-70
2022/03/28 05:02:38;;;;;;;19.20;7.75;;;;;;;;;;5087352;28;20024;-70
2022/03/28 05:05:04;;;;;;;18.92;7.75;;;;;;;;;;5082083;28;20111;-70
2022/03/28 05:07:31;;;;;;;18.92;7.63;;;;;;;;;;5080079;28;20112;-70
2022/03/28 05:09:57;;;;;;;19.65;7.80;;;;;;;;;;5089655;28;20155;-70
2022/03/28 05:12:23;;;;;;;17.65;8.07;;;;;;;;;;5071558;28;20111;-70
2022/03/28 05:14:50;;;;;;;17.35;7.53;;;;;;;;;;5086453;28;20216;-70
2022/03/28 05:17:15;;;;;;;22.77;8.07;;;;;;;;;;5088590;28;20709;-70
2022/03/28 05:19:43;;;;;;;17.15;7.70;;;;;;;;;;5074657;28;20020;-70
2022/03/28 05:22:09;;;;;;;18.98;8.13;;;;;;;;;;5074778;28;20036;-70
2022/03/28 05:24:35;;;;;;;18.90;8.02;;;;;;;;;;5072525;28;20506;-70
2022/03/28 05:27:01;;;;;;;21.95;8.52;;;;;;;;;;5074769;28;20017;-70
2022/03/28 05:29:27;;;;;;;20.00;8.32;;;;;;;;;;5087463;28;20034;-70
2022/03/28 05:31:53;;;;;;;18.75;8.02;;;;;;;;;;5070973;28;20143;-70
2022/03/28 05:34:19;;;;;;;24.73;7.95;;;;;;;;;;5080275;28;20028;-68
2022/03/28 05:36:45;;;;;;;18.45;8.63;;;;;;;;;;5074896;28;20024;-70
2022/03/28 05:39:12;;;;;;;19.60;8.73;;;;;;;;;;5079954;28;20055;-71
2022/03/28 05:41:41;;;;;;;18.52;7.68;;;;;;;;;;5082499;28;20020;-78
2022/03/28 05:44:11;;;;;;;15.88;7.65;;;;;;;;;;5079123;28;20036;-72
2022/03/28 05:46:37;;;;;;;19.05;8.02;;;;;;;;;;5076782;28;20027;-70
2022/03/28 05:49:05;;;;;;;27.75;8.68;;;;;;;;;;5085178;28;20012;-68
2022/03/28 05:51:31;;;;;;;17.48;8.25;;;;;;;;;;5074096;28;20053;-70
2022/03/28 05:53:57;;;;;;;22.48;8.85;;;;;;;;;;5078174;28;20064;-72
2022/03/28 05:56:23;;;;;;;17.42;8.70;;;;;;;;;;5071522;28;20029;-70
2022/03/28 05:58:49;;;;;;;18.00;8.95;;;;;;;;;;5079327;28;20036;-70
2022/03/28 06:01:15;;;;;;;20.92;8.80;;;;;;;;;;5082698;28;20095;-70
2022/03/28 06:03:41;;;;;;;22.92;8.88;;;;;;;;;;5083534;28;20024;-71
2022/03/28 06:06:08;;;;;;;18.52;8.13;;;;;;;;;;5089326;28;20024;-69
2022/03/28 06:08:34;;;;;;;23.90;8.95;;;;;;;;;;5086219;28;20044;-70
2022/03/28 06:11:03;;;;;;;24.50;9.55;;;;;;;;;;5084043;28;20017;-70
2022/03/28 06:13:29;;;;;;;21.35;9.00;;;;;;;;;;5078259;28;20031;-70
2022/03/28 06:15:55;;;;;;;17.65;8.45;;;;;;;;;;5071772;28;20012;-70
2022/03/28 06:18:21;;;;;;;21.42;8.32;;;;;;;;;;5078970;28;20044;-69
2022/03/28 06:20:47;;;;;;;21.45;9.40;;;;;;;;;;5075335;28;20072;-69
2022/03/28 06:23:13;;;;;;;20.17;8.75;;;;;;;;;;5083398;28;20533;-69
2022/03/28 06:25:40;;;;;;;16.83;8.43;;;;;;;;;;5081082;28;20024;-69
2022/03/28 06:28:06;;;;;;;19.90;9.77;;;;;;;;;;5084241;28;20024;-69
2022/03/28 06:30:32;;;;;;;25.88;10.18;;;;;;;;;;5082316;28;20028;-69
2022/03/28 06:32:58;;;;;;;24.92;8.43;;;;;;;;;;5086456;28;20031;-69
2022/03/28 06:35:24;;;;;;;18.85;8.95;;;;;;;;;;5088824;28;20028;-69
2022/03/28 06:37:52;;;;;;;21.23;9.25;;;;;;;;;;5078792;28;20024;-69
2022/03/28 06:40:18;;;;;;;16.42;8.77;;;;;;;;;;5080831;28;20118;-69
2022/03/28 06:42:44;;;;;;;19.63;9.45;;;;;;;;;;5076573;28;20658;-69
2022/03/28 06:45:10;;;;;;;23.52;8.48;;;;;;;;;;5081066;28;20438;-68
2022/03/28 06:47:37;;;;;;;18.38;8.70;;;;;;;;;;5083036;28;20028;-68
2022/03/28 06:50:05;;;;;;;17.25;8.82;;;;;;;;;;5076524;28;20477;-73
2022/03/28 06:52:30;;;;;;;27.40;9.13;;;;;;;;;;5078226;28;20032;-73
2022/03/28 06:54:56;;;;;;;20.27;8.73;;;;;;;;;;5074446;28;20028;-72
2022/03/28 06:57:22;;;;;;;21.65;9.27;;;;;;;;;;5076318;28;20609;-68
2022/03/28 06:59:48;;;;;;;19.25;9.15;;;;;;;;;;5078045;28;20050;-68
2022/03/28 07:02:15;;;;;;;20.20;9.40;;;;;;;;;;5081520;28;20052;-68
2022/03/28 07:04:41;;;;;;;21.38;8.50;;;;;;;;;;5071435;28;21407;-68
2022/03/28 07:07:08;;;;;;;22.80;9.05;;;;;;;;;;5074942;28;20047;-75
2022/03/28 07:09:34;;;;;;;16.77;8.45;;;;;;;;;;5075547;28;20130;-68
2022/03/28 07:12:01;;;;;;;16.08;8.60;;;;;;;;;;5077779;28;20053;-69
2022/03/28 07:14:27;;;;;;;19.45;8.40;;;;;;;;;;5082111;28;20028;-68
2022/03/28 07:16:53;;;;;;;21.75;9.25;;;;;;;;;;5082694;28;20098;-68
2022/03/28 07:19:19;;;;;;;20.10;9.65;;;;;;;;;;5082527;28;20118;-68
2022/03/28 07:21:45;;;;;;;21.40;8.95;;;;;;;;;;5072275;28;20025;-68
2022/03/28 07:24:11;;;;;;;19.98;8.90;;;;;;;;;;5080420;28;20020;-68
2022/03/28 07:26:37;;;;;;;20.35;9.38;;;;;;;;;;5080229;28;20032;-69
2022/03/28 07:29:04;;;;;;;16.45;9.25;;;;;;;;;;5080563;28;20116;-68
2022/03/28 07:31:30;;;;;;;14.65;8.50;;;;;;;;;;5080899;28;20020;-68
2022/03/28 07:36:40;;;;;;;19.40;7.80;;;;;;;;;;5077583;28;20178;-69
2022/03/28 07:39:06;;;;;;;23.42;8.60;;;;;;;;;;5081162;28;20502;-68
2022/03/28 07:41:32;;;;;;;19.90;8.57;;;;;;;;;;5075726;28;20056;-69
2022/03/28 07:43:58;;;;;;;22.40;8.52;;;;;;;;;;5080469;28;20108;-69
2022/03/28 07:46:24;;;;;;;19.15;8.10;;;;;;;;;;5074790;28;20052;-69
2022/03/28 07:48:50;;;;;;;16.17;8.02;;;;;;;;;;5080934;28;20479;-69
2022/03/28 07:51:16;;;;;;;19.95;8.40;;;;;;;;;;5083718;28;20029;-68
2022/03/28 07:53:42;;;;;;;17.08;7.70;;;;;;;;;;5092285;28;20016;-68
2022/03/28 07:56:08;;;;;;;21.95;8.18;;;;;;;;;;5079438;28;20243;-68
2022/03/28 07:58:34;;;;;;;20.23;7.80;;;;;;;;;;5085914;28;20463;-69
2022/03/28 08:01:00;;;;;;;21.38;7.57;;;;;;;;;;5091255;28;20023;-68
2022/03/28 08:03:26;;;;;;;15.77;7.43;;;;;;;;;;5073785;28;20055;-68
2022/03/28 08:05:53;;;;;;;17.38;8.02;;;;;;;;;;5085867;28;20027;-69
2022/03/28 08:08:20;;;;;;;18.00;7.50;;;;;;;;;;5079501;28;20055;-70
2022/03/28 08:10:46;;;;;;;17.58;8.02;;;;;;;;;;5087211;28;20036;-69
2022/03/28 08:13:11;;;;;;;17.95;8.45;;;;;;;;;;5083672;28;20036;-69
2022/03/28 08:15:37;;;;;;;17.77;7.47;;;;;;;;;;5080787;28;20059;-69
2022/03/28 08:18:04;;;;;;;19.42;8.25;;;;;;;;;;5077147;28;20661;-69
2022/03/28 08:20:30;;;;;;;16.33;8.65;;;;;;;;;;5078150;28;20032;-71
2022/03/28 08:22:59;;;;;;;21.42;8.38;;;;;;;;;;5081256;28;20035;-72
2022/03/28 08:25:25;;;;;;;29.73;8.95;;;;;;;;;;5088175;28;20067;-72
2022/03/28 08:27:51;;;;;;;14.90;8.00;;;;;;;;;;5078883;28;20028;-72
2022/03/28 08:30:17;;;;;;;14.20;7.32;;;;;;;;;;5074991;28;20028;-72
2022/03/28 08:32:45;;;;;;;15.73;7.70;;;;;;;;;;5074519;28;20020;-70
2022/03/28 08:35:11;;;;;;;18.42;8.73;;;;;;;;;;5079523;28;20032;-71
2022/03/28 08:37:38;;;;;;;19.73;7.30;;;;;;;;;;5081391;28;20058;-70
2022/03/28 08:40:04;;;;;;;16.30;8.05;;;;;;;;;;5085810;28;20032;-70
2022/03/28 08:42:32;;;;;;;14.23;7.38;;;;;;;;;;5083838;28;20047;-70
2022/03/28 08:44:58;;;;;;;18.42;8.85;;;;;;;;;;5084509;28;20044;-70
2022/03/28 08:47:25;;;;;;;19.75;7.75;;;;;;;;;;5088674;28;20036;-71
2022/03/28 08:49:51;;;;;;;15.27;7.68;;;;;;;;;;5084079;28;20050;-70
2022/03/28 08:52:17;;;;;;;14.85;7.15;;;;;;;;;;5082430;28;20431;-69
2022/03/28 08:54:44;;;;;;;16.90;7.85;;;;;;;;;;5082046;28;20312;-71
2022/03/28 08:57:12;;;;;;;16.92;7.78;;;;;;;;;;5072317;28;20119;-71
2022/03/28 08:59:38;;;;;;;15.38;7.50;;;;;;;;;;5085148;28;20057;-74
2022/03/28 09:02:04;;;;;;;21.45;8.23;;;;;;;;;;5081140;28;20039;-71
2022/03/28 09:04:30;;;;;;;13.10;7.82;;;;;;;;;;5077532;28;20035;-71
2022/03/28 09:06:57;;;;;;;17.25;8.38;;;;;;;;;;5074428;28;20035;-71
2022/03/28 09:09:26;;;;;;;13.15;7.65;;;;;;;;;;5080205;28;20123;-70
2022/03/28 09:11:52;;;;;;;20.10;8.95;;;;;;;;;;5075809;28;20023;-69
2022/03/28 09:14:27;;;;;;;15.45;8.10;;;;;;;;;;5083152;28;20024;-72
2022/03/28 09:17:07;;;;;;;16.63;8.15;;;;;;;;;;5079234;28;20041;-72
2022/03/28 09:19:47;;;;;;;18.83;8.13;;;;;;;;;;5078661;28;20490;-70
2022/03/28 09:22:16;;;;;;;19.80;7.97;;;;;;;;;;5071732;28;20204;-71
2022/03/28 09:24:42;;;;;;;16.42;9.05;;;;;;;;;;5080715;28;20056;-77
2022/03/28 09:27:16;;;;;;;15.43;8.55;;;;;;;;;;5077666;28;20036;-77
2022/03/28 09:29:55;;;;;;;16.30;8.25;;;;;;;;;;5079312;28;20033;-77
2022/03/28 09:32:22;;;;;;;17.77;8.75;;;;;;;;;;5081458;28;20042;-77
2022/03/28 09:35:07;;;;;;;15.55;9.02;;;;;;;;;;5070179;28;20128;-77
2022/03/28 09:37:51;;;;;;;16.98;8.85;;;;;;;;;;5076625;28;20028;-77
2022/03/28 09:40:36;;;;;;;13.82;8.15;;;;;;;;;;5081890;28;20387;-77
2022/03/28 09:43:04;;;;;;;16.80;8.18;;;;;;;;;;5069756;28;20433;-76
2022/03/28 09:45:35;;;;;;;14.98;8.32;;;;;;;;;;5080108;28;20052;-77
2022/03/28 09:48:01;;;;;;;;;;;;;;;;;;5078689;28;20025;-78
2022/03/28 09:50:28;;;;;;;14.43;7.93;;;;;;;;;;5075134;28;20003;-83
2022/03/28 09:52:54;;;;;;;16.63;7.93;;;;;;;;;;5086344;28;20020;-75
2022/03/28 09:55:20;;;;;;;15.90;8.07;;;;;;;;;;5083858;28;20100;-77
2022/03/28 09:57:46;;;;;;;18.33;8.52;;;;;;;;;;5073266;28;20043;-76
2022/03/28 10:00:13;;;;;;;19.30;8.90;;;;;;;;;;5081844;28;20034;-73
2022/03/28 10:02:39;;;;;;;14.93;7.80;;;;;;;;;;5079359;28;20364;-73
2022/03/28 10:05:06;;;;;;;18.58;8.02;;;;;;;;;;5076442;28;20123;-73
2022/03/28 10:07:32;;;;;;;17.40;7.82;;;;;;;;;;5081987;28;20458;-74
2022/03/28 10:09:59;;;;;;;18.60;8.15;;;;;;;;;;5079720;28;20051;-73
2022/03/28 10:12:25;;;;;;;15.80;8.18;;;;;;;;;;5085720;28;20021;-73
2022/03/28 10:14:57;;;;;;;12.27;7.75;;;;;;;;;;5078475;28;20519;-73
2022/03/28 10:17:24;;;;;;;13.90;8.07;;;;;;;;;;5079827;28;20558;-73
2022/03/28 10:20:00;;;;;;;14.40;8.52;;;;;;;;;;5078426;28;20040;-75
2022/03/28 10:22:36;;;;;;;19.60;8.05;;;;;;;;;;5073769;28;20438;-73
2022/03/28 10:25:08;;;;;;;13.68;7.82;;;;;;;;;;5081061;28;20525;-73
2022/03/28 10:27:35;;;;;;;14.15;7.25;;;;;;;;;;5083688;28;20078;-72
2022/03/28 10:30:32;;;;;;;15.30;8.15;;;;;;;;;;5082018;28;20062;-73
2022/03/28 10:33:08;;;;;;;18.95;7.80;;;;;;;;;;5071049;28;20063;-73
2022/03/28 10:35:34;;;;;;;15.43;7.60;;;;;;;;;;5089875;28;20028;-73
2022/03/28 10:38:15;;;;;;;14.05;7.93;;;;;;;;;;5081369;28;20031;-73
2022/03/28 10:40:53;;;;;;;12.68;7.50;;;;;;;;;;5078111;28;20021;-73
2022/03/28 10:43:19;;;;;;;11.65;7.80;;;;;;;;;;5084863;28;20494;-71
2022/03/28 10:45:47;;;;;;;18.52;7.68;;;;;;;;;;5085382;28;20032;-69
2022/03/28 10:48:13;;;;;;;11.80;6.90;;;;;;;;;;5083202;28;20031;-69
2022/03/28 10:50:49;;;;;;;12.15;6.97;;;;;;;;;;5087523;28;20054;-69
2022/03/28 10:53:29;;;;;;;15.82;7.90;;;;;;;;;;5080881;28;20039;-70
2022/03/28 10:56:03;;;;;;;11.68;6.85;;;;;;;;;;5075542;28;20547;-69
2022/03/28 10:58:30;;;;;;;9.82;6.82;;;;;;;;;;5073650;28;20407;-70
2022/03/28 11:01:08;;;;;;;10.02;5.85;;;;;;;;;;5082100;28;20034;-69
2022/03/28 11:03:35;;;;;;;10.82;6.75;;;;;;;;;;5078547;28;20032;-69
2022/03/28 11:06:01;;;;;;;14.15;7.05;;;;;;;;;;5080559;28;20081;-70
2022/03/28 11:08:33;;;;;;;10.10;5.82;;;;;;;;;;5078987;28;20040;-70
2022/03/28 11:11:15;;;;;;;8.48;5.72;;;;;;;;;;5082848;28;20023;-70
2022/03/28 11:13:41;;;;;;;8.90;5.53;;;;;;;;;;5090956;28;20048;-70
2022/03/28 11:16:17;;;;;;;12.82;5.60;;;;;;;;;;5080218;28;20067;-70
2022/03/28 11:18:42;;;;;;;9.07;5.50;;;;;;;;;;5078312;28;20024;-70
2022/03/28 11:21:15;;;;;;;13.98;6.03;;;;;;;;;;5081200;28;20029;-71
2022/03/28 11:23:42;;;;;;;12.82;5.85;;;;;;;;;;5084397;28;20557;-69
2022/03/28 11:26:10;;;;;;;13.18;5.60;;;;;;;;;;5082207;28;20123;-70
2022/03/28 11:28:39;;;;;;;19.85;5.35;;;;;;;;;;5075496;28;20097;-69
2022/03/28 11:31:08;;;;;;;11.45;5.13;;;;;;;;;;5073470;28;20032;-70
2022/03/28 11:33:34;;;;;;;9.95;4.57;;;;;;;;;;5080104;28;20438;-70
2022/03/28 11:36:04;;;;;;;12.00;5.40;;;;;;;;;;5074918;28;20024;-70
2022/03/28 11:38:35;;;;;;;7.95;4.75;;;;;;;;;;5088595;28;20027;-69
2022/03/28 11:41:30;;;;;;;7.15;5.15;;;;;;;;;;5087194;28;20032;-70
2022/03/28 11:43:57;;;;;;;9.73;5.40;;;;;;;;;;5073043;28;20395;-70
2022/03/28 11:46:24;;;;;;;8.88;5.43;;;;;;;;;;5072528;28;20532;-70
2022/03/28 11:48:54;;;;;;;12.10;5.57;;;;;;;;;;5076584;28;20352;-71
2022/03/28 11:51:19;;;;;;;9.55;5.10;;;;;;;;;;5078522;28;20161;-69
2022/03/28 11:53:46;;;;;;;9.48;4.80;;;;;;;;;;5079464;28;20061;-69
2022/03/28 11:56:21;;;;;;;6.20;4.45;;;;;;;;;;5078708;28;20515;-70
2022/03/28 11:58:47;;;;;;;7.60;5.22;;;;;;;;;;5087544;28;20035;-70
2022/03/28 12:01:13;;;;;;;7.22;4.72;;;;;;;;;;5079943;28;20013;-70
2022/03/28 12:03:49;;;;;;;5.63;4.38;;;;;;;;;;5085554;28;20073;-71
2022/03/28 12:06:25;;;;;;;8.85;4.30;;;;;;;;;;5080455;28;20035;-71
2022/03/28 12:08:54;;;;;;;6.53;4.95;;;;;;;;;;5082048;28;20047;-70
2022/03/28 12:11:19;;;;;;;7.10;4.88;;;;;;;;;;5090082;28;20064;-70
2022/03/28 12:13:46;;;;;;;6.28;4.25;;;;;;;;;;5089307;28;20050;-70
2022/03/28 12:16:11;;;;;;;7.38;5.07;;;;;;;;;;5085984;28;20024;-71
2022/03/28 12:18:37;;;;;;;7.25;5.30;;;;;;;;;;5086159;28;20051;-70
2022/03/28 12:21:03;;;;;;;7.22;5.10;;;;;;;;;;5084013;28;20026;-70
2022/03/28 12:23:30;;;;;;;8.60;5.05;;;;;;;;;;5077787;28;20035;-70
2022/03/28 12:26:05;;;;;;;6.85;5.05;;;;;;;;;;5082993;28;20047;-70
2022/03/28 12:28:33;;;;;;;8.43;5.93;;;;;;;;;;5084176;28;20024;-72
2022/03/28 12:30:59;;;;;;;9.30;4.90;;;;;;;;;;5081272;28;20085;-70
2022/03/28 12:33:29;;;;;;;7.03;5.32;;;;;;;;;;5088862;28;20088;-71
2022/03/28 12:35:59;;;;;;;8.43;5.78;;;;;;;;;;5090690;28;20024;-71
2022/03/28 12:38:29;;;;;;;8.38;5.45;;;;;;;;;;5082390;28;20106;-72
2022/03/28 12:41:04;;;;;;;6.28;4.93;;;;;;;;;;5086898;28;20020;-71
2022/03/28 12:43:31;;;;;;;7.82;5.70;;;;;;;;;;5087680;28;20043;-71
2022/03/28 12:45:58;;;;;;;8.55;5.45;;;;;;;;;;5086664;28;20066;-72
2022/03/28 12:48:36;;;;;;;8.23;6.00;;;;;;;;;;5094157;28;20036;-72
2022/03/28 12:51:03;;;;;;;10.95;5.88;;;;;;;;;;5076738;28;20028;-71
2022/03/28 12:53:29;;;;;;;10.10;6.35;;;;;;;;;;5084120;28;20029;-70
2022/03/28 12:56:12;;;;;;;8.23;5.30;;;;;;;;;;5080739;28;20028;-68
2022/03/28 12:58:39;;;;;;;7.43;5.55;;;;;;;;;;5080494;28;20270;-69
2022/03/28 13:01:06;;;;;;;8.48;5.60;;;;;;;;;;5081611;28;20497;-69
2022/03/28 13:03:33;;;;;;;7.22;5.53;;;;;;;;;;5082196;28;20035;-70
2022/03/28 13:06:07;;;;;;;8.18;5.60;;;;;;;;;;5075774;28;20025;-70
2022/03/28 13:08:33;;;;;;;11.05;6.15;;;;;;;;;;5087694;28;20052;-71
2022/03/28 13:11:10;;;;;;;7.22;5.78;;;;;;;;;;5091763;28;20032;-71
2022/03/28 13:13:36;;;;;;;7.65;5.63;;;;;;;;;;5083535;28;21302;-70
2022/03/28 13:16:02;;;;;;;9.15;6.88;;;;;;;;;;5076439;28;20467;-71
2022/03/28 13:18:28;;;;;;;10.40;6.65;;;;;;;;;;5071878;28;20033;-71
2022/03/28 13:20:55;;;;;;;9.35;6.15;;;;;;;;;;5080174;28;20066;-71
2022/03/28 13:23:22;;;;;;;10.40;6.07;;;;;;;;;;5087280;28;20412;-71
2022/03/28 13:25:48;;;;;;;10.30;6.38;;;;;;;;;;5084300;28;20024;-71
2022/03/28 13:28:15;;;;;;;9.73;6.38;;;;;;;;;;5090647;28;20549;-71
2022/03/28 13:30:43;;;;;;;10.20;5.88;;;;;;;;;;5083796;28;20045;-70
2022/03/28 13:33:11;;;;;;;13.52;6.32;;;;;;;;;;5088540;28;20024;-71
2022/03/28 13:35:37;;;;;;;9.73;6.75;;;;;;;;;;5080824;28;20067;-69
2022/03/28 13:38:07;;;;;;;10.32;5.95;;;;;;;;;;5083092;28;20032;-69
2022/03/28 13:40:34;;;;;;;9.82;6.15;;;;;;;;;;5088742;28;20572;-70
2022/03/28 13:43:00;;;;;;;12.45;6.13;;;;;;;;;;5084560;28;20466;-70
2022/03/28 13:45:28;;;;;;;11.32;6.18;;;;;;;;;;5080382;28;20032;-70
2022/03/28 13:47:56;;;;;;;10.07;6.15;;;;;;;;;;5084593;28;20028;-70
2022/03/28 13:50:22;;;;;;;9.45;6.65;;;;;;;;;;5082076;28;20028;-69
2022/03/28 13:52:48;;;;;;;12.75;6.03;;;;;;;;;;5087638;28;20024;-70
2022/03/28 13:55:14;;;;;;;9.50;6.47;;;;;;;;;;5078706;28;20036;-70
2022/03/28 13:57:41;;;;;;;9.75;6.47;;;;;;;;;;5084268;28;20607;-70
2022/03/28 14:00:11;;;;;;;9.50;6.47;;;;;;;;;;5075460;28;20232;-69
2022/03/28 14:02:37;;;;;;;9.18;6.55;;;;;;;;;;5079453;28;20031;-70
2022/03/28 14:05:04;;;;;;;10.77;6.72;;;;;;;;;;5078457;28;20115;-70
2022/03/28 14:07:30;;;;;;;11.20;6.63;;;;;;;;;;5083195;28;20028;-70
2022/03/28 14:09:56;;;;;;;12.73;7.15;;;;;;;;;;5089215;28;20062;-70
2022/03/28 14:12:24;;;;;;;11.40;7.60;;;;;;;;;;5083363;28;20459;-73
2022/03/28 14:14:50;;;;;;;11.63;6.95;;;;;;;;;;5084511;28;20375;-71
2022/03/28 14:17:16;;;;;;;12.82;7.13;;;;;;;;;;5078635;28;20039;-72
2022/03/28 14:19:43;;;;;;;11.57;7.65;;;;;;;;;;5076704;28;20253;-74
2022/03/28 14:22:09;;;;;;;13.85;7.97;;;;;;;;;;5076292;28;20035;-74
2022/03/28 14:24:36;;;;;;;15.57;8.45;;;;;;;;;;5070832;28;20035;-72
2022/03/28 14:27:02;;;;;;;14.02;7.65;;;;;;;;;;5080894;28;20016;-73
2022/03/28 14:29:28;;;;;;;12.52;7.53;;;;;;;;;;5080722;28;20029;-73
2022/03/28 14:31:57;;;;;;;15.23;7.82;;;;;;;;;;5083483;28;20024;-72
2022/03/28 14:34:24;;;;;;;15.30;7.80;;;;;;;;;;5081920;28;20031;-75
2022/03/28 14:36:50;;;;;;;14.10;8.30;;;;;;;;;;5083932;28;20123;-76